Time;durP1;ratioP1;P1;durP2;ratioP2;P2;SDS_P1;SDS_P2;PMS_P1;PMS_P2;Temp;Humidity;BMP_temperature;BMP_pressure;BME280_temperature;BME280_humidity;BME280_pressure;Samples;Min_cycle;Max_cycle;Signal;HPM_P1;HPM_P2
2022/09/17 00:01:00;;;;;;;0.40;0.40;;;;;;;25.57;33.57;97658.25;4971089;28;20018;-90
2022/09/17 00:03:27;;;;;;;1.17;0.40;;;;;;;25.54;33.59;97652.69;4954091;28;20035;-91
2022/09/17 00:06:04;;;;;;;1.75;0.30;;;;;;;25.51;33.65;97654.22;4967307;28;20026;-91
2022/09/17 00:08:29;;;;;;;1.50;0.40;;;;;;;25.53;33.64;97657.38;4954882;28;20120;-91
2022/09/17 00:10:55;;;;;;;0.30;0.30;;;;;;;25.52;33.79;97655.78;4966978;28;20475;-90
2022/09/17 00:13:21;;;;;;;0.40;0.30;;;;;;;25.49;33.73;97659.22;4971458;28;20022;-91
2022/09/17 00:15:50;;;;;;;0.55;0.40;;;;;;;25.45;33.81;97655.63;4954318;28;20073;-91
2022/09/17 00:18:15;;;;;;;1.60;0.30;;;;;;;25.45;33.59;97644.69;4955427;28;20065;-91
2022/09/17 00:20:42;;;;;;;0.30;0.30;;;;;;;25.43;33.53;97647.75;4970705;28;20053;-90
2022/09/17 00:23:08;;;;;;;0.30;0.30;;;;;;;25.45;33.62;97647.41;4984878;28;20165;-90
2022/09/17 00:25:42;;;;;;;0.30;0.30;;;;;;;25.44;33.85;97648.53;4986875;28;20125;-90
2022/09/17 00:28:08;;;;;;;;;;;;;;;25.47;33.48;97650.59;4965328;28;20502;-91
2022/09/17 00:30:33;;;;;;;0.20;0.20;;;;;;;25.38;33.59;97648.03;4986741;28;19921;-90
2022/09/17 00:32:59;;;;;;;1.05;0.30;;;;;;;25.37;33.59;97637.44;4970485;28;20034;-90
2022/09/17 00:35:25;;;;;;;0.43;0.38;;;;;;;25.37;33.56;97643.72;4986667;28;20117;-90
2022/09/17 00:37:51;;;;;;;0.68;0.32;;;;;;;25.33;33.68;97637.34;4954477;28;20117;-90
2022/09/17 00:40:17;;;;;;;1.55;0.30;;;;;;;25.38;33.45;97639.81;4969942;28;20022;-90
2022/09/17 00:42:44;;;;;;;1.23;0.40;;;;;;;25.28;33.58;97632.16;4969677;28;20084;-90
2022/09/17 00:45:10;;;;;;;0.95;0.30;;;;;;;25.27;33.72;97644.25;4956720;28;20031;-90
2022/09/17 00:47:38;;;;;;;0.60;0.30;;;;;;;25.25;33.54;97639.13;4968070;28;20056;-90
2022/09/17 00:50:09;;;;;;;0.40;0.38;;;;;;;25.32;33.73;97651.38;4974807;28;20085;-90
2022/09/17 00:52:40;;;;;;;0.30;0.30;;;;;;;25.21;33.75;97634.69;4968860;28;20034;-90
2022/09/17 00:55:19;;;;;;;1.48;0.30;;;;;;;25.26;33.72;97651.63;4958887;28;20030;-90
2022/09/17 00:57:45;;;;;;;1.08;0.38;;;;;;;25.23;33.58;97646.84;4957693;28;20049;-90
2022/09/17 01:00:12;;;;;;;0.35;0.35;;;;;;;25.23;33.52;97652.31;4972739;28;20019;-90
2022/09/17 01:02:40;;;;;;;0.30;0.30;;;;;;;25.22;33.72;97648.00;4974519;28;20093;-91
2022/09/17 01:05:09;;;;;;;0.30;0.30;;;;;;;25.24;33.72;97653.91;4967320;28;20027;-90
2022/09/17 01:07:46;;;;;;;0.25;0.25;;;;;;;25.23;33.51;97652.31;4974417;28;20038;-90
2022/09/17 01:10:19;;;;;;;0.30;0.30;;;;;;;25.18;33.68;97649.84;4991412;28;20050;-90
2022/09/17 01:12:50;;;;;;;0.20;0.20;;;;;;;25.22;33.53;97649.94;4974229;28;20384;-90
2022/09/17 01:15:38;;;;;;;0.20;0.20;;;;;;;25.20;33.46;97647.56;4990813;28;20130;-90
2022/09/17 01:18:10;;;;;;;0.70;0.30;;;;;;;25.19;33.61;97654.16;4997164;28;20030;-91
2022/09/17 01:21:11;;;;;;;0.38;0.30;;;;;;;25.14;33.65;97640.75;4980665;28;20051;-90
2022/09/17 01:24:27;;;;;;;0.35;0.35;;;;;;;25.06;33.76;97630.78;4974448;28;20026;-91
2022/09/17 01:27:26;;;;;;;0.80;0.38;;;;;;;25.14;33.70;97651.69;4987002;28;20122;-91
2022/09/17 01:30:11;;;;;;;0.20;0.20;;;;;;;25.12;33.66;97653.97;5010044;28;20033;-91
2022/09/17 01:33:22;;;;;;;0.30;0.30;;;;;;;25.12;33.53;97648.50;4973563;28;20516;-91
2022/09/17 01:36:06;;;;;;;0.32;0.32;;;;;;;25.09;33.73;97652.75;4954283;28;20047;-91
2022/09/17 01:38:37;;;;;;;3.55;0.30;;;;;;;25.07;33.46;97654.22;4943770;29;20541;-91
2022/09/17 01:41:06;;;;;;;0.30;0.30;;;;;;;25.07;33.58;97651.50;4952811;28;20046;-92
2022/09/17 01:43:35;;;;;;;0.40;0.40;;;;;;;25.07;33.50;97656.97;4973148;28;20101;-91
2022/09/17 01:46:44;;;;;;;1.65;0.40;;;;;;;25.02;33.73;97640.81;4985191;28;20080;-91
2022/09/17 01:49:10;;;;;;;0.20;0.20;;;;;;;24.98;33.51;97648.94;5007102;28;20381;-91
2022/09/17 01:51:41;;;;;;;1.20;0.40;;;;;;;24.91;33.51;97635.88;4985706;28;20056;-91
2022/09/17 01:54:36;;;;;;;1.13;0.20;;;;;;;24.97;33.55;97641.09;4968699;28;20047;-91
2022/09/17 01:57:22;;;;;;;0.30;0.30;;;;;;;25.02;33.44;97651.75;4999130;28;20399;-91
2022/09/17 02:00:16;;;;;;;0.32;0.32;;;;;;;24.97;33.56;97641.09;4988244;28;20399;-91
2022/09/17 02:02:46;;;;;;;0.40;0.40;;;;;;;25.00;33.65;97651.31;4986890;28;20046;-91
2022/09/17 02:05:15;;;;;;;0.35;0.35;;;;;;;24.98;33.54;97650.88;4971554;28;20038;-91
2022/09/17 02:07:44;;;;;;;0.30;0.30;;;;;;;24.90;33.38;97637.00;4989876;28;20471;-91
2022/09/17 02:10:14;;;;;;;0.32;0.32;;;;;;;24.93;33.60;97647.25;4969916;28;20073;-91
2022/09/17 02:12:43;;;;;;;0.30;0.30;;;;;;;24.92;33.45;97642.94;4995678;28;20158;-91
2022/09/17 02:15:12;;;;;;;0.30;0.30;;;;;;;24.83;33.50;97636.81;4984324;28;20118;-91
2022/09/17 02:17:42;;;;;;;0.73;0.30;;;;;;;24.89;33.53;97657.28;4988163;28;20034;-91
2022/09/17 02:20:08;;;;;;;1.75;0.30;;;;;;;24.85;33.48;97650.94;4973155;28;20041;-91
2022/09/17 02:23:03;;;;;;;0.40;0.38;;;;;;;24.90;33.46;97658.84;4966058;28;20035;-91
2022/09/17 02:25:58;;;;;;;0.20;0.20;;;;;;;24.86;33.55;97659.94;4985435;28;20410;-91
2022/09/17 02:28:41;;;;;;;0.32;0.32;;;;;;;24.82;33.54;97646.19;4980835;28;20034;-91
2022/09/17 02:31:07;;;;;;;0.75;0.40;;;;;;;24.83;33.59;97653.22;4957088;28;20034;-91
2022/09/17 02:33:32;;;;;;;0.30;0.30;;;;;;;24.77;33.78;97643.69;4971345;28;20086;-91
2022/09/17 02:35:58;;;;;;;0.28;0.28;;;;;;;24.78;33.44;97650.72;4954025;28;20050;-91
2022/09/17 02:38:24;;;;;;;0.38;0.38;;;;;;;24.80;33.53;97647.66;4956304;28;20049;-91
2022/09/17 02:40:53;;;;;;;0.55;0.40;;;;;;;24.77;33.55;97649.16;4965099;28;20411;-91
2022/09/17 02:43:36;;;;;;;0.50;0.28;;;;;;;24.72;33.42;97641.22;4972713;28;20026;-90
2022/09/17 02:46:19;;;;;;;0.32;0.30;;;;;;;24.80;33.46;97659.38;4971117;28;20045;-91
2022/09/17 02:49:04;;;;;;;0.30;0.30;;;;;;;24.74;33.37;97647.91;5011649;28;20027;-91
2022/09/17 02:51:32;;;;;;;0.40;0.40;;;;;;;24.77;33.48;97657.34;4987464;28;20065;-91
2022/09/17 02:54:19;;;;;;;0.20;0.20;;;;;;;24.75;33.46;97662.38;4989430;28;20045;-91
2022/09/17 02:56:56;;;;;;;0.30;0.30;;;;;;;24.74;33.42;97658.03;4989562;28;20036;-91
2022/09/17 02:59:48;;;;;;;0.40;0.40;;;;;;;24.74;33.55;97653.38;4967429;28;20039;-91
2022/09/17 03:02:27;;;;;;;0.30;0.30;;;;;;;24.72;33.80;97660.34;4986857;28;20042;-91
2022/09/17 03:04:53;;;;;;;0.20;0.20;;;;;;;24.70;33.69;97657.16;4981982;28;20018;-91
2022/09/17 03:07:19;;;;;;;0.30;0.30;;;;;;;24.70;33.70;97665.34;4970518;28;20027;-91
2022/09/17 03:09:44;;;;;;;0.30;0.30;;;;;;;24.66;33.48;97658.97;4969379;28;20023;-91
2022/09/17 03:12:10;;;;;;;0.30;0.30;;;;;;;24.64;33.62;97661.25;4955944;28;20022;-91
2022/09/17 03:14:36;;;;;;;0.40;0.40;;;;;;;24.64;33.70;97661.25;4955675;28;20034;-91
2022/09/17 03:17:02;;;;;;;0.40;0.40;;;;;;;24.61;33.55;97656.50;4954848;28;20130;-91
2022/09/17 03:19:28;;;;;;;0.30;0.30;;;;;;;24.58;33.48;97649.81;4955868;28;20498;-91
2022/09/17 03:21:53;;;;;;;0.50;0.40;;;;;;;24.52;33.71;97654.66;4954613;28;20038;-91
2022/09/17 03:24:19;;;;;;;0.30;0.30;;;;;;;24.64;33.81;97666.72;4970323;28;20049;-91
2022/09/17 03:26:46;;;;;;;0.20;0.20;;;;;;;24.59;33.54;97653.31;4954056;28;20038;-91
2022/09/17 03:29:12;;;;;;;0.30;0.30;;;;;;;24.58;33.49;97660.72;4966343;28;20423;-91
2022/09/17 03:31:38;;;;;;;0.30;0.30;;;;;;;24.53;33.57;97656.25;4955621;28;20765;-90
2022/09/17 03:34:03;;;;;;;0.38;0.38;;;;;;;24.54;33.74;97657.91;4969630;28;20030;-90
2022/09/17 03:36:29;;;;;;;0.25;0.25;;;;;;;24.54;33.67;97660.63;4987315;28;20018;-90
2022/09/17 03:38:55;;;;;;;0.30;0.30;;;;;;;24.54;33.63;97659.81;4955085;28;20041;-90
2022/09/17 03:41:21;;;;;;;0.20;0.20;;;;;;;24.49;33.58;97655.38;4962670;28;20034;-90
2022/09/17 03:43:47;;;;;;;0.90;0.40;;;;;;;24.52;33.58;97660.13;4955039;28;20387;-90
2022/09/17 03:46:12;;;;;;;0.35;0.35;;;;;;;24.50;33.72;97650.72;4966783;28;20105;-91
2022/09/17 03:48:38;;;;;;;0.50;0.30;;;;;;;24.54;33.70;97657.09;4988768;28;20126;-91
2022/09/17 03:51:04;;;;;;;0.47;0.30;;;;;;;24.48;33.54;97656.50;4970059;28;20026;-90
2022/09/17 03:53:30;;;;;;;0.38;0.38;;;;;;;24.46;33.61;97652.56;5017892;28;20065;-90
2022/09/17 03:56:01;;;;;;;0.28;0.28;;;;;;;24.48;33.65;97651.06;4987386;28;20378;-91
2022/09/17 03:58:30;;;;;;;0.32;0.30;;;;;;;24.53;33.54;97661.72;4986573;28;20105;-91
2022/09/17 04:00:56;;;;;;;0.30;0.30;;;;;;;24.48;33.52;97658.47;4970835;28;20018;-90
2022/09/17 04:03:26;;;;;;;0.20;0.20;;;;;;;24.51;33.67;97666.75;4970659;28;20030;-90
2022/09/17 04:05:51;;;;;;;0.73;0.50;;;;;;;24.44;33.89;97650.16;4954768;28;20038;-90
2022/09/17 04:08:17;;;;;;;0.85;0.40;;;;;;;24.41;33.67;97650.84;4955223;28;20025;-91
2022/09/17 04:10:43;;;;;;;0.43;0.30;;;;;;;24.48;33.82;97655.72;4967576;28;20057;-90
2022/09/17 04:13:11;;;;;;;0.28;0.28;;;;;;;24.45;33.72;97654.47;4969588;28;20037;-91
2022/09/17 04:15:37;;;;;;;0.60;0.35;;;;;;;24.42;33.65;97644.22;4967872;28;20031;-91
2022/09/17 04:18:02;;;;;;;0.40;0.40;;;;;;;24.49;33.72;97651.84;4974587;28;20022;-91
2022/09/17 04:20:28;;;;;;;0.38;0.38;;;;;;;24.50;33.37;97650.72;4990559;28;20054;-90
2022/09/17 04:22:54;;;;;;;0.40;0.40;;;;;;;24.57;33.33;97658.34;4974225;28;20034;-90
2022/09/17 04:25:21;;;;;;;0.30;0.30;;;;;;;24.47;33.57;97651.38;4989451;28;20046;-91
2022/09/17 04:27:47;;;;;;;1.20;0.65;;;;;;;24.53;33.38;97666.41;4989434;28;20034;-90
2022/09/17 04:30:13;;;;;;;0.43;0.30;;;;;;;24.50;33.61;97662.41;4973825;28;20100;-90
2022/09/17 04:32:39;;;;;;;0.70;0.40;;;;;;;24.48;33.59;97675.63;4974517;28;20038;-90
2022/09/17 04:35:04;;;;;;;0.32;0.32;;;;;;;24.36;33.77;97657.34;4969620;28;20034;-90
2022/09/17 04:37:30;;;;;;;0.40;0.40;;;;;;;24.32;33.60;97650.22;5007154;28;20414;-91
2022/09/17 04:39:56;;;;;;;0.40;0.40;;;;;;;24.31;33.60;97652.13;4966955;28;20022;-91
2022/09/17 04:42:21;;;;;;;0.40;0.40;;;;;;;24.40;33.49;97673.81;4972444;28;20136;-91
2022/09/17 04:44:47;;;;;;;0.30;0.30;;;;;;;24.40;33.71;97676.53;4974764;28;20357;-90
2022/09/17 04:47:13;;;;;;;0.35;0.35;;;;;;;24.39;33.67;97683.16;4969995;28;20033;-90
2022/09/17 04:49:38;;;;;;;0.40;0.40;;;;;;;24.40;33.88;97679.28;4990609;28;20048;-91
2022/09/17 04:52:04;;;;;;;0.30;0.30;;;;;;;24.38;33.68;97676.09;4969919;28;20029;-90
2022/09/17 04:54:29;;;;;;;0.40;0.40;;;;;;;24.37;33.61;97680.78;5016222;28;20034;-91
2022/09/17 04:56:55;;;;;;;0.38;0.30;;;;;;;24.36;33.82;97678.38;4979371;28;20117;-91
2022/09/17 04:59:21;;;;;;;0.30;0.30;;;;;;;24.40;33.63;97692.91;4990055;28;20027;-90
2022/09/17 05:01:46;;;;;;;0.30;0.30;;;;;;;24.38;33.81;97689.75;4973641;28;20062;-90
2022/09/17 05:04:12;;;;;;;0.47;0.47;;;;;;;24.35;33.92;97684.97;4990109;28;20042;-90
2022/09/17 05:06:37;;;;;;;0.40;0.40;;;;;;;24.32;33.80;97682.97;4988023;28;20022;-90
2022/09/17 05:09:03;;;;;;;0.30;0.30;;;;;;;24.37;33.51;97690.91;4973162;28;20035;-90
2022/09/17 05:11:29;;;;;;;0.47;0.47;;;;;;;24.31;33.92;97681.34;5004841;28;20482;-91
2022/09/17 05:13:55;;;;;;;0.30;0.30;;;;;;;24.28;33.95;97682.03;4957782;28;20027;-90
2022/09/17 05:16:20;;;;;;;0.30;0.30;;;;;;;24.27;33.94;97683.19;4956541;28;20096;-90
2022/09/17 05:18:48;;;;;;;0.45;0.40;;;;;;;24.30;33.84;97696.94;4955254;28;20499;-91
2022/09/17 05:21:14;;;;;;;0.30;0.30;;;;;;;24.17;33.66;97668.88;4957508;28;20066;-90
2022/09/17 05:23:39;;;;;;;0.30;0.30;;;;;;;24.37;33.78;97696.38;5006039;28;20041;-90
2022/09/17 05:26:05;;;;;;;0.40;0.30;;;;;;;24.39;33.56;97694.06;4990174;28;20105;-90
2022/09/17 05:28:30;;;;;;;0.50;0.30;;;;;;;24.45;33.41;97703.59;4957141;28;20058;-90
2022/09/17 05:30:59;;;;;;;0.30;0.30;;;;;;;24.41;33.66;97694.53;4971920;28;20386;-90
2022/09/17 05:33:25;;;;;;;0.52;0.40;;;;;;;24.42;33.50;97703.50;4972688;28;20177;-90
2022/09/17 05:35:50;;;;;;;0.32;0.32;;;;;;;24.34;33.49;97703.28;5005893;28;20057;-90
2022/09/17 05:38:17;;;;;;;0.30;0.30;;;;;;;24.37;33.74;97699.09;4964252;28;20088;-90
2022/09/17 05:40:44;;;;;;;0.30;0.30;;;;;;;24.36;33.52;97697.50;4970862;28;20412;-91
2022/09/17 05:43:10;;;;;;;0.63;0.30;;;;;;;24.30;33.67;97696.94;4988057;28;20357;-91
2022/09/17 05:45:38;;;;;;;0.30;0.30;;;;;;;24.22;33.81;97684.22;4972009;28;20030;-90
2022/09/17 05:48:06;;;;;;;0.30;0.30;;;;;;;24.23;33.44;97690.47;4957283;28;20019;-91
2022/09/17 05:50:31;;;;;;;0.30;0.30;;;;;;;24.27;33.53;97697.63;4956986;28;20101;-91
2022/09/17 05:53:02;;;;;;;0.50;0.40;;;;;;;24.32;33.76;97705.56;4984217;28;20050;-90
2022/09/17 05:55:28;;;;;;;0.43;0.30;;;;;;;24.24;33.49;97692.84;4973202;28;20394;-91
2022/09/17 05:57:54;;;;;;;0.43;0.43;;;;;;;24.33;33.73;97703.63;4955991;28;20022;-90
2022/09/17 06:00:20;;;;;;;0.30;0.30;;;;;;;24.14;33.52;97666.03;4970051;28;20484;-90
2022/09/17 06:02:45;;;;;;;0.35;0.32;;;;;;;24.26;33.81;97700.69;4956446;28;20029;-90
2022/09/17 06:05:11;;;;;;;0.47;0.30;;;;;;;24.24;33.79;97690.13;4952714;28;20107;-90
2022/09/17 06:07:37;;;;;;;0.35;0.35;;;;;;;24.32;33.90;97711.03;4956597;28;20054;-90
2022/09/17 06:10:04;;;;;;;0.20;0.20;;;;;;;24.15;33.79;97678.56;4954676;28;20026;-91
2022/09/17 06:12:30;;;;;;;0.50;0.35;;;;;;;24.22;33.82;97699.81;4987575;28;20114;-91
2022/09/17 06:14:55;;;;;;;0.30;0.30;;;;;;;24.26;33.61;97706.16;4972294;28;20040;-91
2022/09/17 06:17:24;;;;;;;0.50;0.30;;;;;;;24.30;33.74;97712.50;4955773;28;20482;-91
2022/09/17 06:19:50;;;;;;;0.30;0.30;;;;;;;24.07;33.54;97671.28;4972403;28;20491;-91
2022/09/17 06:22:18;;;;;;;0.30;0.30;;;;;;;24.10;33.79;97670.59;4970481;28;20046;-90
2022/09/17 06:24:44;;;;;;;0.30;0.30;;;;;;;24.31;33.51;97703.19;4971526;28;20081;-91
2022/09/17 06:27:10;;;;;;;0.20;0.20;;;;;;;24.33;33.48;97703.63;4971675;28;20054;-90
2022/09/17 06:29:35;;;;;;;0.20;0.20;;;;;;;24.34;33.60;97716.16;4988158;28;20372;-90
2022/09/17 06:32:01;;;;;;;1.38;0.32;;;;;;;24.40;33.57;97722.16;4956443;28;20030;-90
2022/09/17 06:34:27;;;;;;;0.35;0.35;;;;;;;24.36;33.64;97725.56;4984579;28;20030;-90
2022/09/17 06:36:52;;;;;;;0.30;0.30;;;;;;;24.31;33.51;97703.19;4956481;28;20034;-90
2022/09/17 06:39:18;;;;;;;0.45;0.40;;;;;;;24.28;33.55;97709.31;4971724;28;20105;-91
2022/09/17 06:41:44;;;;;;;0.30;0.30;;;;;;;24.26;33.73;97715.13;4987113;28;20100;-90
2022/09/17 06:44:10;;;;;;;0.30;0.30;;;;;;;24.34;33.85;97730.59;4972988;28;20085;-90
2022/09/17 06:46:36;;;;;;;0.30;0.30;;;;;;;24.33;33.78;97730.94;4950028;28;20117;-90
2022/09/17 06:49:01;;;;;;;0.20;0.20;;;;;;;24.32;33.70;97726.63;4970654;28;20030;-90
2022/09/17 06:51:27;;;;;;;0.30;0.30;;;;;;;24.26;33.82;97719.78;4970801;28;20034;-91
2022/09/17 06:53:53;;;;;;;0.30;0.30;;;;;;;24.33;33.76;97739.13;4975472;28;20035;-90
2022/09/17 06:56:18;;;;;;;0.43;0.43;;;;;;;23.80;34.33;97720.69;4952262;28;20245;-90
2022/09/17 06:58:44;;;;;;;1.92;0.50;;;;;;;23.51;34.87;97731.78;4966522;28;20068;-90
2022/09/17 07:01:10;;;;;;;0.77;0.45;;;;;;;23.41;34.99;97722.13;4955007;28;20038;-91
2022/09/17 07:03:37;;;;;;;2.25;0.47;;;;;;;23.24;34.82;97728.53;4953461;28;20023;-90
2022/09/17 16:00:23;;;;;;;28.50;6.45;;;;;;;26.03;34.57;97921.28;5189739;24;20058;-88
2022/09/17 16:02:54;;;;;;;32.13;6.50;;;;;;;26.50;33.93;97941.63;4740472;30;20115;-90
2022/09/17 16:05:23;;;;;;;24.13;5.72;;;;;;;26.63;35.38;97964.31;4735186;30;20036;-89
2022/09/17 16:07:48;;;;;;;25.90;5.78;;;;;;;26.41;35.10;97935.56;4762959;30;20051;-86
2022/09/17 16:10:14;;;;;;;20.63;4.75;;;;;;;26.77;34.74;97963.88;4759466;30;20382;-86
2022/09/17 16:12:40;;;;;;;20.88;4.55;;;;;;;26.94;34.60;97968.16;4750295;30;20586;-84
2022/09/17 16:15:11;;;;;;;18.67;4.70;;;;;;;26.71;36.21;97952.34;4739239;30;20043;-90
2022/09/17 16:17:47;;;;;;;13.00;3.60;;;;;;;26.51;35.71;97926.00;4744448;30;20557;-88
2022/09/17 16:20:14;;;;;;;14.48;3.85;;;;;;;26.84;34.97;97922.13;4746022;30;20082;-84
2022/09/17 16:22:41;;;;;;;14.88;3.90;;;;;;;27.07;34.98;97944.97;4768718;30;20093;-85
2022/09/17 16:25:06;;;;;;;15.40;3.60;;;;;;;27.10;35.33;97948.97;4769904;30;20346;-85
2022/09/17 16:27:44;;;;;;;14.38;3.22;;;;;;;27.17;36.80;97971.84;4726124;30;20115;-88
2022/09/17 16:30:13;;;;;;;14.02;3.42;;;;;;;27.01;37.89;97976.56;4763016;30;20313;-88
2022/09/17 16:32:39;;;;;;;11.15;2.95;;;;;;;27.03;38.68;97985.22;4732102;30;20032;-88
2022/09/17 16:35:14;;;;;;;12.63;2.90;;;;;;;27.16;38.68;97986.72;4727414;30;20047;-89
2022/09/17 16:37:40;;;;;;;11.65;2.90;;;;;;;27.41;38.27;97992.00;4758922;30;20032;-90
2022/09/17 16:40:13;;;;;;;7.65;2.85;;;;;;;27.53;37.76;97983.63;4723383;30;20036;-88
2022/09/17 16:42:38;;;;;;;11.27;2.47;;;;;;;27.73;38.02;97991.88;4734435;30;20389;-88
2022/09/17 16:45:10;;;;;;;10.20;2.75;;;;;;;27.27;40.48;97958.72;4755941;30;20110;-88
2022/09/17 16:47:36;;;;;;;8.68;2.28;;;;;;;27.35;39.84;97994.22;4740728;30;20036;-90
2022/09/17 16:50:06;;;;;;;9.32;2.30;;;;;;;27.63;38.99;97976.78;4725346;30;20486;-89
2022/09/17 16:52:33;;;;;;;8.02;2.08;;;;;;;27.41;41.03;97975.53;4744461;30;20032;-89
2022/09/17 16:54:59;;;;;;;9.38;2.30;;;;;;;27.31;41.15;97956.91;4724819;30;20540;-91
2022/09/17 16:57:24;;;;;;;10.10;2.30;;;;;;;27.59;40.93;97997.06;4722811;30;20042;-91
2022/09/17 16:59:50;;;;;;;6.63;2.08;;;;;;;27.80;39.42;97961.03;4727729;30;20052;-91
2022/09/17 17:02:16;;;;;;;8.05;1.90;;;;;;;28.20;38.00;97977.16;4721901;30;20043;-89
2022/09/17 17:04:41;;;;;;;7.18;2.10;;;;;;;28.08;38.71;97963.59;4726088;30;20524;-86
2022/09/17 17:07:07;;;;;;;9.15;1.98;;;;;;;27.78;40.31;97966.88;4767850;30;20387;-85
2022/09/17 17:09:33;;;;;;;5.57;1.92;;;;;;;28.01;39.34;97977.16;4752654;30;20405;-89
2022/09/17 17:11:58;;;;;;;9.48;1.67;;;;;;;28.36;38.12;98003.72;4729297;30;20617;-89
2022/09/17 17:14:24;;;;;;;12.32;1.90;;;;;;;28.42;38.59;98010.50;4721071;30;20024;-88
2022/09/17 17:16:50;;;;;;;5.07;1.60;;;;;;;28.14;39.29;98003.31;4725106;30;20064;-84
2022/09/17 17:19:16;;;;;;;3.95;1.42;;;;;;;28.50;38.44;97994.94;4736813;30;20032;-86
2022/09/17 17:25:07;;;;;;;6.15;1.83;;;;;;;28.59;38.73;98009.25;4765400;30;20500;-87
2022/09/17 17:27:33;;;;;;;3.78;1.50;;;;;;;28.56;38.77;98005.31;4741227;30;20261;-89
2022/09/17 17:30:01;;;;;;;6.30;2.08;;;;;;;28.53;37.92;97984.03;4767584;30;20046;-88
2022/09/17 17:32:26;;;;;;;2.72;1.33;;;;;;;28.63;38.15;97999.94;4754297;30;20024;-83
2022/09/17 17:34:57;;;;;;;5.70;1.70;;;;;;;28.66;37.91;98020.38;4723545;30;20043;-90
2022/09/17 17:37:25;;;;;;;4.03;1.20;;;;;;;28.87;38.03;98030.94;4745584;30;20075;-89
2022/09/17 17:39:51;;;;;;;5.43;1.30;;;;;;;28.56;38.06;97999.81;4726532;30;20604;-85
2022/09/17 17:42:16;;;;;;;8.35;1.45;;;;;;;28.70;38.18;98020.44;4737864;30;20056;-89
2022/09/17 17:44:42;;;;;;;6.50;1.65;;;;;;;28.37;38.31;97986.06;4730305;30;20023;-90
2022/09/17 17:47:08;;;;;;;2.90;1.23;;;;;;;28.65;38.17;98003.09;4731326;30;20107;-88
2022/09/17 17:49:33;;;;;;;5.85;1.38;;;;;;;28.65;38.35;98014.09;4737673;30;20131;-86
2022/09/17 17:52:00;;;;;;;5.35;1.70;;;;;;;28.63;38.22;98010.91;4734631;30;20028;-88
2022/09/17 17:54:29;;;;;;;8.45;1.40;;;;;;;28.55;39.37;98013.91;4744112;30;20042;-89
2022/09/17 17:56:54;;;;;;;4.75;1.30;;;;;;;28.44;39.07;97984.25;4728565;30;20586;-89
2022/09/17 17:59:20;;;;;;;4.25;1.20;;;;;;;28.65;38.99;98016.06;4729676;30;20059;-91
2022/09/17 18:01:46;;;;;;;4.20;1.30;;;;;;;28.72;38.61;98018.09;4723405;30;20553;-92
2022/09/17 18:04:12;;;;;;;4.60;1.50;;;;;;;28.80;38.58;98019.81;4724341;30;20032;-92
2022/09/17 18:06:56;;;;;;;4.32;1.20;;;;;;;28.90;38.21;98029.41;4736623;30;20047;-89
2022/09/17 18:09:21;;;;;;;3.70;0.95;;;;;;;28.86;38.15;98028.56;4740251;30;20188;-90
2022/09/17 18:11:47;;;;;;;3.25;1.23;;;;;;;28.94;38.04;98033.81;4722602;30;20035;-86
2022/09/17 18:14:13;;;;;;;5.03;1.20;;;;;;;28.71;38.44;98011.03;4737706;30;20090;-88
2022/09/17 18:16:39;;;;;;;4.72;1.25;;;;;;;28.86;38.54;98025.81;4766299;30;20188;-86
2022/09/17 18:19:10;;;;;;;4.05;1.38;;;;;;;28.95;37.82;97999.66;4764775;30;20070;-90
2022/09/17 18:21:35;;;;;;;4.03;1.05;;;;;;;29.30;37.69;98041.84;4738398;30;20028;-90
2022/09/17 18:24:01;;;;;;;5.00;1.20;;;;;;;29.07;38.06;98023.41;4737718;30;20750;-91
2022/09/17 18:26:27;;;;;;;2.85;0.98;;;;;;;29.08;38.20;98029.69;4731499;30;20421;-92
2022/09/17 18:28:53;;;;;;;3.97;1.20;;;;;;;29.08;38.47;98029.69;4730210;30;20043;-89
2022/09/17 18:31:22;;;;;;;7.93;1.45;;;;;;;28.96;39.03;98050.75;4727406;30;20050;-88
2022/09/17 18:34:17;;;;;;;5.53;1.30;;;;;;;28.92;39.81;98038.09;4765689;30;20511;-87
2022/09/17 18:36:44;;;;;;;3.25;1.20;;;;;;;28.80;40.31;98041.81;4762000;30;20055;-89
2022/09/17 18:39:13;;;;;;;4.68;1.00;;;;;;;28.92;40.78;98049.88;4727310;30;20039;-88
2022/09/17 18:41:42;;;;;;;7.80;1.73;;;;;;;29.01;41.17;98053.19;4726812;30;20070;-87
2022/09/17 18:44:08;;;;;;;4.05;1.13;;;;;;;28.99;41.98;98050.00;4734330;30;20097;-85
2022/09/17 18:46:34;;;;;;;5.90;1.27;;;;;;;28.61;41.19;98023.41;4741423;30;20059;-87
2022/09/17 18:49:00;;;;;;;4.72;1.25;;;;;;;28.76;40.33;98040.97;4765409;30;20055;-88
2022/09/17 18:51:26;;;;;;;3.97;1.50;;;;;;;28.86;39.84;98054.09;4765831;30;20038;-88
2022/09/17 18:53:51;;;;;;;5.32;1.30;;;;;;;28.72;38.81;98034.59;4766126;30;20448;-88
2022/09/17 18:56:18;;;;;;;5.80;1.13;;;;;;;28.91;38.40;98058.50;4765304;30;20133;-88
2022/09/17 18:58:44;;;;;;;3.33;1.17;;;;;;;28.72;38.49;98034.59;4758459;30;20044;-88
2022/09/17 19:01:10;;;;;;;5.88;1.00;;;;;;;28.73;38.11;98044.44;4766209;30;20056;-88
2022/09/17 19:03:35;;;;;;;3.72;1.00;;;;;;;28.94;37.63;98071.50;4765198;30;20035;-88
2022/09/17 19:06:02;;;;;;;2.95;1.00;;;;;;;28.75;37.55;98045.69;4766040;30;20115;-88
2022/09/17 19:08:27;;;;;;;2.95;0.80;;;;;;;28.72;37.07;98040.91;4743730;30;20118;-88
2022/09/17 19:10:53;;;;;;;2.50;0.98;;;;;;;28.77;37.08;98043.34;4764488;30;20062;-88
2022/09/17 19:13:19;;;;;;;3.35;0.90;;;;;;;28.77;36.68;98048.03;4766251;30;20406;-88
2022/09/17 19:15:44;;;;;;;1.52;0.70;;;;;;;28.74;36.73;98037.78;4757079;30;20052;-88
2022/09/17 19:18:10;;;;;;;5.07;1.08;;;;;;;28.74;36.53;98048.78;4765522;30;20542;-88
2022/09/17 19:20:37;;;;;;;2.85;0.90;;;;;;;28.80;36.41;98055.56;4764890;30;20110;-88
2022/09/17 19:23:06;;;;;;;2.80;0.77;;;;;;;28.69;36.35;98041.63;4765217;30;20140;-88
2022/09/17 19:25:34;;;;;;;2.78;1.02;;;;;;;28.78;36.14;98044.91;4758579;30;20093;-89
2022/09/17 19:28:02;;;;;;;3.72;0.93;;;;;;;28.73;36.04;98047.19;4764231;30;20406;-88
2022/09/17 19:30:29;;;;;;;1.63;0.85;;;;;;;28.83;35.73;98046.56;4765150;30;20074;-88
2022/09/17 19:32:58;;;;;;;2.78;0.85;;;;;;;28.92;35.55;98062.81;4726043;30;20070;-89
2022/09/17 19:35:23;;;;;;;2.00;0.93;;;;;;;28.81;35.53;98041.44;4738722;30;20071;-89
2022/09/17 19:37:50;;;;;;;2.05;0.90;;;;;;;28.64;35.35;98028.19;4742267;30;20035;-88
2022/09/17 19:40:16;;;;;;;1.17;0.80;;;;;;;28.87;35.17;98055.66;4768878;30;20044;-89
2022/09/17 19:42:42;;;;;;;0.77;0.70;;;;;;;28.98;35.03;98075.91;4737044;30;20491;-88
2022/09/17 19:45:08;;;;;;;1.95;0.88;;;;;;;28.93;35.03;98072.66;4741273;30;20375;-88
2022/09/17 19:47:33;;;;;;;2.13;0.80;;;;;;;28.87;34.93;98063.91;4737975;30;20493;-89
2022/09/17 19:49:59;;;;;;;2.20;0.70;;;;;;;28.88;34.64;98060.00;4733302;30;20062;-89
2022/09/17 19:52:25;;;;;;;1.60;0.73;;;;;;;28.89;34.77;98066.31;4737250;30;21450;-89
2022/09/17 19:54:50;;;;;;;1.65;0.88;;;;;;;29.00;34.68;98084.56;4738773;30;20063;-88
2022/09/17 19:57:16;;;;;;;1.40;0.80;;;;;;;28.96;34.41;98077.41;4752129;30;20036;-88
2022/09/17 19:59:42;;;;;;;0.90;0.60;;;;;;;28.95;34.55;98078.59;4734447;30;20032;-88
2022/09/17 20:02:10;;;;;;;1.88;0.90;;;;;;;29.03;34.40;98092.09;4722549;30;20048;-88
2022/09/17 20:04:35;;;;;;;2.00;0.70;;;;;;;29.07;34.07;98096.88;4755461;30;20108;-88
2022/09/17 20:07:03;;;;;;;0.80;0.70;;;;;;;28.87;34.26;98077.66;4730572;30;20499;-88
2022/09/17 20:09:29;;;;;;;1.05;0.60;;;;;;;28.88;34.05;98086.72;4740185;30;20089;-88
2022/09/17 20:11:55;;;;;;;1.95;1.00;;;;;;;28.96;34.08;98094.72;4741274;30;20032;-88
2022/09/17 20:14:20;;;;;;;0.88;0.60;;;;;;;28.97;34.04;98093.53;4725716;30;20031;-88
2022/09/17 20:16:46;;;;;;;1.30;0.80;;;;;;;28.99;34.06;98105.00;4751164;30;20078;-88
2022/09/17 20:19:15;;;;;;;1.35;0.80;;;;;;;28.92;34.01;98102.09;4732401;30;20067;-88
2022/09/17 20:21:40;;;;;;;1.15;0.70;;;;;;;29.01;34.06;98107.34;4750878;30;20085;-88
2022/09/17 20:24:06;;;;;;;2.67;0.80;;;;;;;28.98;34.00;98102.63;4724505;30;20143;-88
2022/09/17 20:26:32;;;;;;;1.70;0.80;;;;;;;28.93;33.95;98100.94;4737576;30;20040;-88
2022/09/17 20:28:57;;;;;;;1.35;0.65;;;;;;;29.01;33.64;98108.16;4727798;30;20035;-88
2022/09/17 20:31:25;;;;;;;1.35;0.80;;;;;;;28.99;33.68;98106.94;4753874;30;20107;-89
2022/09/17 20:33:55;;;;;;;1.38;0.80;;;;;;;29.01;33.80;98119.16;4724444;30;20051;-88
2022/09/17 20:36:23;;;;;;;2.53;0.70;;;;;;;29.05;33.55;98118.44;4718868;30;20105;-89
2022/09/17 20:38:49;;;;;;;1.75;0.73;;;;;;;29.01;33.81;98121.91;4735981;30;20050;-89